createdAt,value
2019-04-21T00:00:32.127Z,92.60
2019-04-21T00:03:07.379Z,92.10
2019-04-21T00:05:53.294Z,92.90
2019-04-21T00:08:39.258Z,92.30
2019-04-21T00:11:11.034Z,92.60
2019-04-21T00:13:28.185Z,92.70
2019-04-21T00:15:53.235Z,93.00
2019-04-21T00:18:40.866Z,93.10
2019-04-21T00:21:12.157Z,92.90
2019-04-21T00:23:41.227Z,93.00
2019-04-21T00:26:16.499Z,93.10
2019-04-21T00:28:58.110Z,93.20
2019-04-21T00:31:15.331Z,93.50
2019-04-21T00:33:31.312Z,93.40
2019-04-21T00:36:05.357Z,93.40
2019-04-21T00:38:59.128Z,93.50
2019-04-21T00:41:19.283Z,93.70
2019-04-21T00:43:37.294Z,93.90
2019-04-21T00:46:03.444Z,93.70
2019-04-21T00:48:42.447Z,93.80
2019-04-21T00:51:25.013Z,94.10
2019-04-21T00:53:51.636Z,94.20
2019-04-21T00:56:34.016Z,94.10
2019-04-21T00:58:48.751Z,94.50
2019-04-21T01:01:15.044Z,94.60
2019-04-21T01:03:46.361Z,94.60
2019-04-21T01:06:16.338Z,94.90
2019-04-21T01:08:42.778Z,95.00
2019-04-21T01:11:15.307Z,94.90
2019-04-21T01:13:46.785Z,94.90
2019-04-21T01:16:14.112Z,95.10
2019-04-21T01:18:39.441Z,94.90
2019-04-21T01:20:48.295Z,95.20
2019-04-21T01:23:16.735Z,94.80
2019-04-21T01:25:55.860Z,95.10
2019-04-21T01:28:32.816Z,95.50
2019-04-21T01:31:07.481Z,95.60
2019-04-21T01:33:41.182Z,95.60
2019-04-21T01:35:59.557Z,95.80
2019-04-21T01:38:34.368Z,95.90
2019-04-21T01:41:10.255Z,96.20
2019-04-21T01:43:28.143Z,96.50
2019-04-21T01:46:02.253Z,96.40
2019-04-21T01:48:24.662Z,96.50
2019-04-21T01:50:55.259Z,96.70
2019-04-21T01:53:48.282Z,96.80
2019-04-21T01:56:34.048Z,96.70
2019-04-21T01:58:55.288Z,96.80
2019-04-21T02:01:37.224Z,96.60
2019-04-21T02:03:59.943Z,96.50
2019-04-21T02:06:37.372Z,96.80
2019-04-21T02:08:57.729Z,96.80
2019-04-21T02:11:31.428Z,97.00
2019-04-21T02:14:05.401Z,96.90
2019-04-21T02:16:28.349Z,97.00
2019-04-21T02:18:54.451Z,97.20
2019-04-21T02:21:25.401Z,97.30
2019-04-21T02:24:09.353Z,97.60
2019-04-21T02:26:27.203Z,97.50
2019-04-21T02:29:02.056Z,97.60
2019-04-21T02:31:39.604Z,97.80
2019-04-21T02:36:40.202Z,98.00
2019-04-21T02:39:16.432Z,98.40
2019-04-21T02:44:10.103Z,98.60
2019-04-21T02:46:38.503Z,98.60
2019-04-21T02:49:11.212Z,98.20
2019-04-21T02:51:33.699Z,98.40
2019-04-21T02:59:05.329Z,98.60
2019-04-21T03:04:40.408Z,98.70
2019-04-21T03:07:13.100Z,98.70
2019-04-21T03:12:13.133Z,99.40
2019-04-21T03:14:50.433Z,99.70
2019-04-21T03:19:48.213Z,99.70
2019-04-21T03:22:13.671Z,99.60
2019-04-21T03:24:53.467Z,99.60
2019-04-21T03:27:28.824Z,99.60
2019-04-21T03:29:37.214Z,99.50
2019-04-21T03:32:31.094Z,99.50
2019-04-21T03:34:57.664Z,99.80
2019-04-21T03:39:36.676Z,99.90
2019-04-21T03:42:10.446Z,99.90
2019-04-21T03:44:32.757Z,99.90
2019-04-21T03:52:02.987Z,99.90
2019-04-21T03:54:25.948Z,99.90
2019-04-21T03:57:11.307Z,99.90
2019-04-21T03:59:20.193Z,99.90
2019-04-21T04:02:08.614Z,99.90
2019-04-21T04:07:49.640Z,99.90
2019-04-21T04:10:08.415Z,99.90
2019-04-21T04:17:32.861Z,99.90
2019-04-21T04:20:07.847Z,99.90
2019-04-21T04:25:07.749Z,99.90
2019-04-21T04:30:08.034Z,99.90
2019-04-21T04:32:42.131Z,99.90
2019-04-21T04:40:10.023Z,99.90
2019-04-21T04:45:15.043Z,99.90
2019-04-21T04:49:59.934Z,99.90
2019-04-21T05:00:15.388Z,99.90
2019-04-21T05:05:15.699Z,99.90
2019-04-21T05:07:42.879Z,99.90
2019-04-21T05:09:59.675Z,99.90
2019-04-21T05:15:04.798Z,99.90
2019-04-21T05:20:10.439Z,99.90
2019-04-21T05:22:24.300Z,99.90
2019-04-21T05:24:48.040Z,99.90
2019-04-21T05:27:55.070Z,99.90
2019-04-21T05:33:27.723Z,99.90
2019-04-21T05:36:04.771Z,99.90
2019-04-21T05:38:56.648Z,99.90
2019-04-21T05:41:18.212Z,99.90
2019-04-21T05:43:56.492Z,99.90
2019-04-21T05:46:25.366Z,99.90
2019-04-21T05:51:55.804Z,99.90
2019-04-21T05:54:39.447Z,99.90
2019-04-21T05:57:03.796Z,99.90
2019-04-21T05:59:33.942Z,99.90
2019-04-21T06:02:17.828Z,99.90
2019-04-21T06:04:52.652Z,99.90
2019-04-21T06:07:06.967Z,99.90
2019-04-21T06:09:35.205Z,99.90
2019-04-21T06:12:02.925Z,99.70
2019-04-21T06:14:37.505Z,99.50
2019-04-21T06:17:06.099Z,99.20
2019-04-21T06:19:36.667Z,99.20
2019-04-21T06:21:57.168Z,98.70
2019-04-21T06:24:29.876Z,98.70
2019-04-21T06:29:30.113Z,97.90
2019-04-21T06:32:22.014Z,97.70
2019-04-21T06:34:24.971Z,97.60
2019-04-21T06:37:18.892Z,97.10
2019-04-21T06:39:48.270Z,96.60
2019-04-21T06:41:58.852Z,96.50
2019-04-21T06:44:32.033Z,96.50
2019-04-21T06:47:00.884Z,96.30
2019-04-21T06:49:27.888Z,96.10
2019-04-21T06:52:07.304Z,95.70
2019-04-21T06:56:58.712Z,95.10
2019-04-21T06:59:29.796Z,94.80
2019-04-21T07:01:59.839Z,94.30
2019-04-21T07:04:22.320Z,94.10
2019-04-21T07:06:54.956Z,93.70
2019-04-21T07:09:26.300Z,93.30
2019-04-21T07:11:47.854Z,92.90
2019-04-21T07:14:29.271Z,92.60
2019-04-21T07:16:57.875Z,92.00
2019-04-21T07:19:30.636Z,91.70
2019-04-21T07:21:52.556Z,91.30
2019-04-21T07:24:29.304Z,90.70
2019-04-21T07:26:51.203Z,90.80
2019-04-21T07:29:20.631Z,90.60
2019-04-21T07:31:59.161Z,90.00
2019-04-21T07:34:22.654Z,89.20
2019-04-21T07:36:54.888Z,87.60
2019-04-21T07:39:12.092Z,85.70
2019-04-21T07:41:42.157Z,85.50
2019-04-21T07:44:04.919Z,84.80
2019-04-21T07:46:36.586Z,83.40
2019-04-21T07:49:21.039Z,82.60
2019-04-21T07:52:16.895Z,82.20
2019-04-21T07:54:55.294Z,82.30
2019-04-21T07:57:02.109Z,79.50
2019-04-21T07:59:46.108Z,74.50
2019-04-21T08:02:11.590Z,71.00
2019-04-21T08:07:04.897Z,66.40
2019-04-21T08:09:31.964Z,61.80
2019-04-21T08:12:01.393Z,61.90
2019-04-21T08:14:35.331Z,60.60
2019-04-21T08:17:04.929Z,59.20
2019-04-21T08:19:32.204Z,58.60
2019-04-21T08:22:07.771Z,57.70
2019-04-21T08:24:32.754Z,57.40
2019-04-21T08:27:04.980Z,56.50
2019-04-21T08:29:38.057Z,54.90
2019-04-21T08:32:02.876Z,53.10
2019-04-21T08:34:30.653Z,52.80
2019-04-21T08:36:50.913Z,51.70
2019-04-21T08:39:28.864Z,51.90
2019-04-21T08:41:56.160Z,51.40
2019-04-21T08:44:28.518Z,50.90
2019-04-21T08:49:20.650Z,49.20
2019-04-21T08:52:01.738Z,48.40
2019-04-21T08:54:24.973Z,48.90
2019-04-21T08:57:28.974Z,46.50
2019-04-21T08:59:59.436Z,46.60
2019-04-21T09:02:43.106Z,45.50
2019-04-21T09:05:09.562Z,44.90
2019-04-21T09:10:02.843Z,42.90
2019-04-21T09:12:28.010Z,42.20
2019-04-21T09:15:01.560Z,41.80
2019-04-21T09:17:27.674Z,41.30
2019-04-21T09:20:07.766Z,40.90
2019-04-21T09:22:30.794Z,39.80
2019-04-21T09:25:00.130Z,38.90
2019-04-21T09:27:27.864Z,38.90
2019-04-21T09:29:44.814Z,38.70
2019-04-21T09:32:12.497Z,38.00
2019-04-21T09:34:41.693Z,37.50
2019-04-21T09:37:19.096Z,38.10
2019-04-21T09:39:40.972Z,36.40
2019-04-21T09:42:06.199Z,36.70
2019-04-21T09:44:38.214Z,36.40
2019-04-21T09:47:05.141Z,35.70
2019-04-21T09:49:33.873Z,35.40
2019-04-21T09:52:02.090Z,35.10
2019-04-21T09:54:33.355Z,35.20
2019-04-21T09:57:03.989Z,34.50
2019-04-21T09:59:33.569Z,35.70
2019-04-21T10:02:06.463Z,36.20
2019-04-21T10:04:26.783Z,35.20
2019-04-21T10:06:54.444Z,35.50
2019-04-21T10:09:22.018Z,33.40
2019-04-21T10:11:50.480Z,33.10
2019-04-21T10:14:18.081Z,32.50
2019-04-21T10:17:05.017Z,33.10
2019-04-21T10:19:32.438Z,32.90
2019-04-21T10:22:02.209Z,32.70
2019-04-21T10:24:30.577Z,31.70
2019-04-21T10:26:58.998Z,31.30
2019-04-21T10:29:29.442Z,31.40
2019-04-21T10:31:55.649Z,31.80
2019-04-21T10:34:23.124Z,32.40
2019-04-21T10:36:51.192Z,32.50
2019-04-21T10:39:21.750Z,29.90
2019-04-21T10:41:49.283Z,30.70
2019-04-21T10:44:16.988Z,30.30
2019-04-21T10:46:47.347Z,31.00
2019-04-21T10:49:14.801Z,29.50
2019-04-21T10:51:43.309Z,30.60
2019-04-21T10:54:11.693Z,30.00
2019-04-21T10:56:43.701Z,29.20
2019-04-21T10:59:08.481Z,28.10
2019-04-21T11:01:36.890Z,28.90
2019-04-21T11:04:21.072Z,29.20
2019-04-21T11:06:44.279Z,29.00
2019-04-21T11:09:11.800Z,28.90
2019-04-21T11:11:39.733Z,29.10
2019-04-21T11:14:08.446Z,28.50
2019-04-21T11:16:37.124Z,29.20
2019-04-21T11:19:06.181Z,28.90
2019-04-21T11:21:34.615Z,28.40
2019-04-21T11:24:02.237Z,27.50
2019-04-21T11:26:29.916Z,27.90
2019-04-21T11:28:58.895Z,27.70
2019-04-21T11:31:27.203Z,27.60
2019-04-21T11:33:55.404Z,26.90
2019-04-21T11:36:22.827Z,26.90
2019-04-21T11:39:20.564Z,26.30
2019-04-21T11:41:37.319Z,26.10
2019-04-21T11:44:05.016Z,26.60
2019-04-21T11:46:32.457Z,25.30
2019-04-21T11:49:00.117Z,25.50
2019-04-21T11:51:28.889Z,24.30
2019-04-21T11:53:56.916Z,23.80
2019-04-21T11:56:25.131Z,23.90
2019-04-21T11:58:53.988Z,22.90
2019-04-21T12:01:21.655Z,23.20
2019-04-21T12:03:49.656Z,23.00
2019-04-21T12:06:17.487Z,22.80
2019-04-21T12:08:49.439Z,23.30
2019-04-21T12:11:15.735Z,22.60
2019-04-21T12:13:43.689Z,23.80
2019-04-21T12:16:12.773Z,23.80
2019-04-21T12:18:40.758Z,24.30
2019-04-21T12:21:09.292Z,24.30
2019-04-21T12:23:36.856Z,24.00
2019-04-21T12:26:05.151Z,22.70
2019-04-21T12:28:32.617Z,23.40
2019-04-21T12:31:00.236Z,23.30
2019-04-21T12:33:45.954Z,23.30
2019-04-21T12:36:13.795Z,23.10
2019-04-21T12:38:48.394Z,24.30
2019-04-21T12:41:10.794Z,24.00
2019-04-21T12:43:38.941Z,24.40
2019-04-21T12:46:07.616Z,24.30
2019-04-21T12:48:35.815Z,24.10
2019-04-21T12:51:03.927Z,24.30
2019-04-21T12:53:31.914Z,24.20
2019-04-21T12:56:00.016Z,24.30
2019-04-21T12:58:29.007Z,23.90
2019-04-21T13:00:56.793Z,23.10
2019-04-21T13:03:25.523Z,23.40
2019-04-21T13:05:53.864Z,23.40
2019-04-21T13:08:21.776Z,23.20
2019-04-21T13:10:49.541Z,23.10
2019-04-21T13:13:17.687Z,22.70
2019-04-21T13:15:45.374Z,22.20
2019-04-21T13:18:14.194Z,21.90
2019-04-21T13:20:42.296Z,22.60
2019-04-21T13:23:10.138Z,23.00
2019-04-21T13:25:38.061Z,23.10
2019-04-21T13:28:06.875Z,23.20
2019-04-21T13:30:34.482Z,22.60
2019-04-21T13:33:03.043Z,21.70
2019-04-21T13:35:30.994Z,21.10
2019-04-21T13:37:58.524Z,22.40
2019-04-21T13:40:52.933Z,22.20
2019-04-21T13:43:06.613Z,22.30
2019-04-21T13:45:34.296Z,22.30
2019-04-21T13:48:01.763Z,22.70
2019-04-21T13:50:29.240Z,22.30
2019-04-21T13:52:56.979Z,22.30
2019-04-21T13:55:25.563Z,22.90
2019-04-21T13:57:54.449Z,22.10
2019-04-21T14:00:22.259Z,21.60
2019-04-21T14:02:49.926Z,21.30
2019-04-21T14:05:18.165Z,20.90
2019-04-21T14:07:46.158Z,21.90
2019-04-21T14:10:15.933Z,21.60
2019-04-21T14:12:44.510Z,21.30
2019-04-21T14:15:12.662Z,21.40
2019-04-21T14:17:40.087Z,21.30
2019-04-21T14:20:09.029Z,20.90
2019-04-21T14:22:37.951Z,20.90
2019-04-21T14:25:06.032Z,20.60
2019-04-21T14:27:34.379Z,20.60
2019-04-21T14:30:02.909Z,20.40
2019-04-21T14:32:31.773Z,20.50
2019-04-21T14:35:00.563Z,20.10
2019-04-21T14:37:28.761Z,19.70
2019-04-21T14:40:04.075Z,20.30
2019-04-21T14:42:26.466Z,19.10
2019-04-21T14:44:54.711Z,19.70
2019-04-21T14:47:40.231Z,19.10
2019-04-21T14:50:28.307Z,19.30
2019-04-21T14:53:14.017Z,19.30
2019-04-21T14:55:43.569Z,19.50
2019-04-21T14:58:11.082Z,19.20
2019-04-21T15:00:52.931Z,19.40
2019-04-21T15:03:21.625Z,19.30
2019-04-21T15:05:49.442Z,18.60
2019-04-21T15:08:17.266Z,18.40
2019-04-21T15:10:45.192Z,18.20
2019-04-21T15:13:13.948Z,19.20
2019-04-21T15:15:41.503Z,18.30
2019-04-21T15:18:08.880Z,18.40
2019-04-21T15:20:36.347Z,18.10
2019-04-21T15:23:04.254Z,18.20
2019-04-21T15:25:32.315Z,18.60
2019-04-21T15:28:00.868Z,18.30
2019-04-21T15:30:28.828Z,17.80
2019-04-21T15:32:56.379Z,17.80
2019-04-21T15:35:24.946Z,17.60
2019-04-21T15:37:53.643Z,17.70
2019-04-21T15:40:32.051Z,18.40
2019-04-21T15:42:50.727Z,18.60
2019-04-21T15:45:18.745Z,18.00
2019-04-21T15:47:47.561Z,18.10
2019-04-21T15:50:17.763Z,18.20
2019-04-21T15:52:45.679Z,18.30
2019-04-21T15:55:32.863Z,18.80
2019-04-21T15:58:10.328Z,18.70
2019-04-21T16:00:52.441Z,19.20
2019-04-21T16:03:20.753Z,18.80
2019-04-21T16:05:48.819Z,19.10
2019-04-21T16:08:16.463Z,18.60
2019-04-21T16:10:50.614Z,18.60
2019-04-21T16:13:13.962Z,19.10
2019-04-21T16:15:41.638Z,19.10
2019-04-21T16:18:10.072Z,18.90
2019-04-21T16:20:37.701Z,18.90
2019-04-21T16:23:06.444Z,18.80
2019-04-21T16:25:34.819Z,18.60
2019-04-21T16:28:03.456Z,17.90
2019-04-21T16:30:30.977Z,18.00
2019-04-21T16:32:59.695Z,18.20
2019-04-21T16:35:27.440Z,17.70
2019-04-21T16:37:57.314Z,17.80
2019-04-21T16:40:25.372Z,18.20
2019-04-21T16:42:54.146Z,18.30
2019-04-21T16:45:22.946Z,18.80
2019-04-21T16:47:53.575Z,19.10
2019-04-21T16:50:19.937Z,19.60
2019-04-21T16:52:52.265Z,19.60
2019-04-21T16:55:39.517Z,19.80
2019-04-21T16:58:28.600Z,19.30
2019-04-21T17:01:10.210Z,19.50
2019-04-21T17:03:32.788Z,19.50
2019-04-21T17:06:03.159Z,19.30
2019-04-21T17:08:29.554Z,19.10
2019-04-21T17:11:09.273Z,18.90
2019-04-21T17:13:27.219Z,19.00
2019-04-21T17:16:16.866Z,19.40
2019-04-21T17:18:40.535Z,19.70
2019-04-21T17:20:58.588Z,19.70
2019-04-21T17:23:22.626Z,20.50
2019-04-21T17:25:50.852Z,20.70
2019-04-21T17:28:19.523Z,20.20
2019-04-21T17:30:48.521Z,20.40
2019-04-21T17:33:21.179Z,21.00
2019-04-21T17:35:45.202Z,20.90
2019-04-21T17:38:14.001Z,21.70
2019-04-21T17:40:42.102Z,22.30
2019-04-21T17:43:14.363Z,22.70
2019-04-21T17:45:39.431Z,22.70
2019-04-21T17:48:13.552Z,23.40
2019-04-21T17:50:55.840Z,24.00
2019-04-21T17:53:48.178Z,24.30
2019-04-21T17:56:29.375Z,24.50
2019-04-21T17:59:06.167Z,25.00
2019-04-21T18:01:35.584Z,25.30
2019-04-21T18:04:06.290Z,25.50
2019-04-21T18:06:57.940Z,26.40
2019-04-21T18:09:41.470Z,27.20
2019-04-21T18:12:00.617Z,27.90
2019-04-21T18:14:11.554Z,28.50
2019-04-21T18:16:42.832Z,29.00
2019-04-21T18:19:08.849Z,30.10
2019-04-21T18:21:54.038Z,30.00
2019-04-21T18:24:20.927Z,30.70
2019-04-21T18:26:54.377Z,30.80
2019-04-21T18:29:17.895Z,31.30
2019-04-21T18:31:48.737Z,31.70
2019-04-21T18:34:49.854Z,32.10
2019-04-21T18:37:24.996Z,32.80
2019-04-21T18:39:59.731Z,33.10
2019-04-21T18:42:47.787Z,33.70
2019-04-21T18:48:06.778Z,34.40
2019-04-21T18:50:51.034Z,34.60
2019-04-21T18:53:39.427Z,35.00
2019-04-21T18:56:05.668Z,35.20
2019-04-21T18:58:30.926Z,35.90
2019-04-21T19:01:06.859Z,35.90
2019-04-21T19:03:35.859Z,36.00
2019-04-21T19:06:05.153Z,36.70
2019-04-21T19:08:51.253Z,37.50
2019-04-21T19:11:13.509Z,38.20
2019-04-21T19:14:15.386Z,39.00
2019-04-21T19:16:33.652Z,39.20
2019-04-21T19:19:11.187Z,39.60
2019-04-21T19:21:24.585Z,40.90
2019-04-21T19:24:01.813Z,41.10
2019-04-21T19:26:33.970Z,40.80
2019-04-21T19:29:07.766Z,41.20
2019-04-21T19:31:35.926Z,41.00
2019-04-21T19:33:49.148Z,41.20
2019-04-21T19:36:07.534Z,41.20
2019-04-21T19:38:48.944Z,42.00
2019-04-21T19:41:20.675Z,42.80
2019-04-21T19:43:51.880Z,42.80
2019-04-21T19:46:21.222Z,42.90
2019-04-21T19:48:54.115Z,44.00
2019-04-21T19:51:17.994Z,44.40
2019-04-21T19:53:44.583Z,44.80
2019-04-21T19:56:00.546Z,45.00
2019-04-21T19:58:33.836Z,45.80
2019-04-21T20:00:57.539Z,46.20
2019-04-21T20:03:26.283Z,46.00
2019-04-21T20:06:02.095Z,46.90
2019-04-21T20:08:36.628Z,47.40
2019-04-21T20:11:11.837Z,48.00
2019-04-21T20:13:52.713Z,48.30
2019-04-21T20:16:15.131Z,49.20
2019-04-21T20:18:27.254Z,50.60
2019-04-21T20:20:50.211Z,51.40
2019-04-21T20:23:22.825Z,51.70
2019-04-21T20:25:50.546Z,51.30
2019-04-21T20:28:31.995Z,52.30
2019-04-21T20:31:08.290Z,52.70
2019-04-21T20:36:08.156Z,53.30
2019-04-21T20:38:24.462Z,51.80
2019-04-21T20:40:51.031Z,52.40
2019-04-21T20:43:34.794Z,52.60
2019-04-21T20:48:21.139Z,53.20
2019-04-21T20:51:01.922Z,53.90
2019-04-21T20:53:27.505Z,54.90
2019-04-21T20:55:53.274Z,55.70
2019-04-21T20:58:23.963Z,56.70
2019-04-21T21:01:18.941Z,58.30
2019-04-21T21:03:24.636Z,59.30
2019-04-21T21:05:48.012Z,61.10
2019-04-21T21:08:26.054Z,61.50
2019-04-21T21:10:44.244Z,62.40
2019-04-21T21:13:26.530Z,65.10
2019-04-21T21:16:09.564Z,68.00
2019-04-21T21:20:49.363Z,71.00
2019-04-21T21:23:11.588Z,71.60
2019-04-21T21:26:01.861Z,73.40
2019-04-21T21:28:07.497Z,74.70
2019-04-21T21:30:41.451Z,76.50
2019-04-21T21:33:12.678Z,78.10
2019-04-21T21:35:38.309Z,78.90
2019-04-21T21:38:13.066Z,78.90
2019-04-21T21:40:36.241Z,80.40
2019-04-21T21:42:53.634Z,81.40
2019-04-21T21:45:25.164Z,80.90
2019-04-21T21:48:06.937Z,81.00
2019-04-21T21:50:27.121Z,82.10
2019-04-21T21:52:59.938Z,82.60
2019-04-21T21:55:19.366Z,82.20
2019-04-21T21:57:51.798Z,83.60
2019-04-21T22:00:21.697Z,86.30
2019-04-21T22:02:51.741Z,86.50
2019-04-21T22:05:25.468Z,85.20
2019-04-21T22:07:49.599Z,84.40
2019-04-21T22:10:17.955Z,83.90
2019-04-21T22:12:56.788Z,84.00
2019-04-21T22:15:19.693Z,83.80
2019-04-21T22:18:09.431Z,83.20
2019-04-21T22:20:36.141Z,83.70
2019-04-21T22:22:51.747Z,83.90
2019-04-21T22:25:21.892Z,85.00
2019-04-21T22:27:43.471Z,84.50
2019-04-21T22:30:14.541Z,84.90
2019-04-21T22:32:50.271Z,85.30
2019-04-21T22:35:22.373Z,86.10
2019-04-21T22:37:51.333Z,86.50
2019-04-21T22:40:20.557Z,87.50
2019-04-21T22:42:48.634Z,87.90
2019-04-21T22:45:09.372Z,88.10
2019-04-21T22:47:39.869Z,88.90
2019-04-21T22:50:08.522Z,89.30
2019-04-21T22:52:37.411Z,90.00
2019-04-21T22:55:10.957Z,89.70
2019-04-21T22:57:40.782Z,89.60
2019-04-21T23:00:08.003Z,90.00
2019-04-21T23:02:35.726Z,89.90
2019-04-21T23:05:05.969Z,90.00
2019-04-21T23:07:44.257Z,90.30
2019-04-21T23:10:03.492Z,91.00
2019-04-21T23:12:36.286Z,91.10
2019-04-21T23:15:07.838Z,91.30
2019-04-21T23:17:50.451Z,91.50
2019-04-21T23:20:19.917Z,91.60
2019-04-21T23:22:58.198Z,91.70
2019-04-21T23:25:12.319Z,91.90
2019-04-21T23:27:46.915Z,91.70
2019-04-21T23:30:19.922Z,92.10
2019-04-21T23:32:36.303Z,92.50
2019-04-21T23:34:56.129Z,92.80
2019-04-21T23:37:25.728Z,92.90
2019-04-21T23:40:03.756Z,93.00
2019-04-21T23:42:29.250Z,93.40
2019-04-21T23:44:56.243Z,93.80
2019-04-21T23:47:37.022Z,93.80
2019-04-21T23:49:59.555Z,93.60
2019-04-21T23:52:19.866Z,93.70
2019-04-21T23:54:47.455Z,93.70
2019-04-21T23:57:23.201Z,93.80
2019-04-21T23:59:48.761Z,94.10
